Time;durP1;ratioP1;P1;durP2;ratioP2;P2;SDS_P1;SDS_P2;PMS_P1;PMS_P2;Temp;Humidity;BMP_temperature;BMP_pressure;BME280_temperature;BME280_humidity;BME280_pressure;Samples;Min_cycle;Max_cycle;Signal;HPM_P1;HPM_P2
2022/05/25 00:00:09;;;;;;;;;;;;;;;20.74;52.87;98681.69;4468964;32;34231;-84
2022/05/25 00:02:38;;;;;;;;;;;;;;;21.05;51.86;98676.13;4475963;32;32926;-82
2022/05/25 00:05:06;;;;;;;;;;;;;;;22.16;49.85;98682.34;4479042;32;33938;-83
2022/05/25 00:07:33;;;;;;;;;;;;;;;21.01;52.39;98692.13;4477009;32;34026;-84
2022/05/25 00:10:01;;;;;;;;;;;;;;;22.07;50.12;98686.22;4473587;32;35111;-87
2022/05/25 00:12:28;;;;;;;;;;;;;;;21.60;51.45;98689.87;4477590;32;33265;-90
2022/05/25 00:15:01;;;;;;;;;;;;;;;21.47;52.19;98677.22;4478616;32;33958;-90
2022/05/25 00:17:28;;;;;;;;;;;;;;;22.33;49.35;98670.16;4474399;32;34944;-90
2022/05/25 00:20:01;;;;;;;;;;;;;;;23.35;47.01;98665.66;4470391;32;34148;-84
2022/05/25 00:22:38;;;;;;;;;;;;;;;23.31;47.24;98655.22;4471725;32;33622;-91
2022/05/25 00:25:07;;;;;;;;;;;;;;;22.11;50.15;98669.31;4481461;32;34089;-88
2022/05/25 00:27:34;;;;;;;;;;;;;;;21.45;51.55;98668.53;4480199;32;34975;-91
2022/05/25 00:30:02;;;;;;;;;;;;;;;21.59;50.84;98666.19;4483608;32;33502;-89
2022/05/25 00:32:29;;;;;;;;;;;;;;;21.66;51.07;98667.66;4466007;32;33289;-83
2022/05/25 00:34:57;;;;;;;;;;;;;;;22.09;49.86;98671.19;4466387;32;34269;-86
2022/05/25 00:37:24;;;;;;;;;;;;;;;22.75;48.95;98669.22;4469725;32;33980;-83
2022/05/25 00:39:52;;;;;;;;;;;;;;;22.44;48.96;98674.13;4480610;32;34991;-83
2022/05/25 00:42:20;;;;;;;;;;;;;;;23.21;47.04;98663.62;4468678;32;33459;-91
2022/05/25 00:44:48;;;;;;;;;;;;;;;24.12;45.28;98668.94;4475944;32;33634;-89
2022/05/25 00:47:16;;;;;;;;;;;;;;;24.21;45.00;98667.63;4477290;32;33798;-89
2022/05/25 00:49:44;;;;;;;;;;;;;;;24.48;45.01;98665.38;4458124;32;34819;-91
2022/05/25 00:52:13;;;;;;;;;;;;;;;24.70;44.68;98670.41;4471733;32;33412;-82
2022/05/25 00:54:41;;;;;;;;;;;;;;;24.40;44.73;98665.78;4471185;32;34067;-83
2022/05/25 00:57:13;;;;;;;;;;;;;;;24.50;43.33;98661.69;4468172;32;35219;-93
2022/05/25 00:59:43;;;;;;;;;;;;;;;23.47;45.56;98670.34;4468355;32;35139;-84
2022/05/25 01:02:12;;;;;;;;;;;;;;;23.50;45.50;98663.12;4462704;32;33539;-83
2022/05/25 01:04:39;;;;;;;;;;;;;;;22.74;47.40;98675.44;4483667;32;34662;-83
2022/05/25 01:07:06;;;;;;;;;;;;;;;22.81;47.50;98678.66;4478007;32;34452;-89
2022/05/25 01:09:34;;;;;;;;;;;;;;;22.28;48.26;98688.00;4477361;32;34532;-83
2022/05/25 01:12:01;;;;;;;;;;;;;;;22.54;47.50;98691.28;4471981;32;33477;-88
2022/05/25 01:14:43;;;;;;;;;;;;;;;21.67;49.62;98685.22;4480038;31;33514;-89
2022/05/25 01:17:21;;;;;;;;;;;;;;;21.78;49.33;98679.47;4482802;32;34964;-89
2022/05/25 01:20:07;;;;;;;;;;;;;;;23.03;46.57;98675.91;4468484;32;34266;-84
2022/05/25 01:22:48;;;;;;;;;;;;;;;22.90;47.17;98677.38;4477075;32;32581;-83
2022/05/25 01:25:15;;;;;;;;;;;;;;;22.76;46.83;98683.28;4456318;32;33889;-84
2022/05/25 01:27:44;;;;;;;;;;;;;;;23.15;45.72;98680.66;4477144;32;33933;-84
2022/05/25 01:30:14;;;;;;;;;;;;;;;22.67;46.92;98688.97;4468163;32;34368;-85
2022/05/25 01:32:56;;;;;;;;;;;;;;;22.01;48.39;98697.03;4474223;32;33604;-83
2022/05/25 01:35:43;;;;;;;;;;;;;;;22.48;47.45;98686.28;4483310;32;35275;-84
2022/05/25 01:38:13;;;;;;;;;;;;;;;23.18;46.12;98685.78;4483245;32;34419;-91
2022/05/25 01:40:59;;;;;;;;;;;;;;;23.49;45.18;98681.72;4480672;32;35067;-84
2022/05/25 01:43:26;;;;;;;;;;;;;;;22.33;47.57;98691.28;4477760;31;33213;-89
2022/05/25 01:45:56;;;;;;;;;;;;;;;22.12;47.84;98692.16;4482391;32;34049;-83
2022/05/25 01:48:23;;;;;;;;;;;;;;;22.25;47.86;98698.69;4455134;32;34185;-84
2022/05/25 01:50:55;;;;;;;;;;;;;;;23.12;46.03;98694.03;4456060;32;34122;-86
2022/05/25 01:53:23;;;;;;;;;;;;;;;21.78;48.79;98683.00;4461067;32;32369;-83
2022/05/25 01:55:51;;;;;;;;;;;;;;;21.71;48.75;98681.53;4469110;32;34221;-84
2022/05/25 01:58:19;;;;;;;;;;;;;;;21.17;49.87;98677.44;4483039;32;34547;-91
2022/05/25 02:00:48;;;;;;;;;;;;;;;21.90;47.96;98675.53;4475554;32;34167;-90
2022/05/25 02:06:17;;;;;;;;;;;;;;;20.63;51.39;98689.97;4461585;32;33662;-86
2022/05/25 02:08:45;;;;;;;;;;;;;;;20.90;50.71;98692.53;4481442;32;34475;-88
2022/05/25 02:11:15;;;;;;;;;;;;;;;20.29;51.70;98703.41;4480830;32;34020;-90
2022/05/25 02:13:43;;;;;;;;;;;;;;;20.74;50.59;98689.59;4464821;32;33561;-82
2022/05/25 02:16:19;;;;;;;;;;;;;;;21.55;49.25;98686.53;4479791;32;34701;-90
2022/05/25 02:19:05;;;;;;;;;;;;;;;20.68;50.98;98684.53;4475511;32;34434;-90
2022/05/25 02:21:47;;;;;;;;;;;;;;;21.37;49.21;98690.78;4456345;32;34101;-92
2022/05/25 02:24:25;;;;;;;;;;;;;;;20.79;50.52;98684.16;4462700;32;33710;-88
2022/05/25 02:26:53;;;;;;;;;;;;;;;20.28;51.78;98687.69;4453776;32;34104;-83
2022/05/25 02:29:37;;;;;;;;;;;;;;;21.35;49.75;98678.56;4468060;32;34494;-84
2022/05/25 02:32:24;;;;;;;;;;;;;;;20.12;52.60;98687.34;4463968;32;34078;-93
2022/05/25 02:34:51;;;;;;;;;;;;;;;20.22;52.34;98683.47;4468088;32;33394;-88
2022/05/25 02:37:19;;;;;;;;;;;;;;;20.44;52.13;98678.34;4453466;32;35182;-84
2022/05/25 02:39:49;;;;;;;;;;;;;;;20.65;51.79;98676.75;4453307;32;35180;-83
2022/05/25 02:42:18;;;;;;;;;;;;;;;20.24;52.37;98678.19;4476598;32;34336;-84
2022/05/25 02:44:45;;;;;;;;;;;;;;;20.35;52.36;98682.16;4473444;32;33484;-84
2022/05/25 02:47:13;;;;;;;;;;;;;;;21.15;49.95;98671.38;4468113;32;34908;-90
2022/05/25 02:49:41;;;;;;;;;;;;;;;21.30;50.00;98670.81;4461310;32;35176;-84
2022/05/25 02:52:09;;;;;;;;;;;;;;;22.18;48.07;98664.69;4468636;32;34633;-82
2022/05/25 02:54:37;;;;;;;;;;;;;;;22.19;47.66;98675.16;4474941;32;33452;-88
2022/05/25 02:57:05;;;;;;;;;;;;;;;20.84;51.03;98676.97;4470468;32;34120;-85
2022/05/25 02:59:33;;;;;;;;;;;;;;;20.59;51.83;98680.47;4449626;32;34159;-92
2022/05/25 03:02:04;;;;;;;;;;;;;;;21.38;50.02;98674.03;4448770;32;33675;-82
2022/05/25 03:04:33;;;;;;;;;;;;;;;21.86;48.34;98675.63;4445696;32;33397;-83
2022/05/25 03:07:00;;;;;;;;;;;;;;;21.09;50.09;98666.34;4445816;32;33587;-90
2022/05/25 03:09:27;;;;;;;;;;;;;;;21.39;50.03;98674.87;4447797;32;34860;-90
2022/05/25 03:11:55;;;;;;;;;;;;;;;21.32;49.75;98674.22;4450801;32;35084;-85
2022/05/25 03:14:22;;;;;;;;;;;;;;;22.16;48.10;98674.44;4447713;32;33158;-92
2022/05/25 03:16:49;;;;;;;;;;;;;;;21.02;50.36;98678.03;4450574;32;35168;-83
2022/05/25 03:19:17;;;;;;;;;;;;;;;21.34;50.01;98668.94;4436275;32;34665;-84
2022/05/25 03:21:45;;;;;;;;;;;;;;;21.30;50.14;98677.84;4450507;32;34370;-84
2022/05/25 03:24:14;;;;;;;;;;;;;;;20.79;51.52;98678.88;4439350;32;33423;-83
2022/05/25 03:26:41;;;;;;;;;;;;;;;21.65;49.25;98671.22;4441338;32;33585;-90
2022/05/25 03:29:09;;;;;;;;;;;;;;;22.39;47.25;98668.16;4445984;32;35271;-84
2022/05/25 03:31:36;;;;;;;;;;;;;;;20.95;50.40;98668.63;4451542;32;32541;-83
2022/05/25 03:34:04;;;;;;;;;;;;;;;21.48;49.22;98668.38;4442714;32;33168;-81
2022/05/25 03:36:31;;;;;;;;;;;;;;;22.01;47.85;98667.97;4443751;32;34297;-84
2022/05/25 03:38:59;;;;;;;;;;;;;;;21.87;47.69;98674.72;4445895;32;35259;-84
2022/05/25 03:41:26;;;;;;;;;;;;;;;20.65;50.94;98688.16;4444746;32;34836;-88
2022/05/25 03:43:54;;;;;;;;;;;;;;;20.67;51.35;98685.44;4443879;32;33543;-84
2022/05/25 03:46:21;;;;;;;;;;;;;;;19.77;53.37;98699.00;4447973;32;35597;-84
2022/05/25 03:48:48;;;;;;;;;;;;;;;20.70;51.22;98698.53;4444396;32;35504;-83
2022/05/25 03:51:16;;;;;;;;;;;;;;;20.73;50.96;98706.31;4451952;32;35128;-85
2022/05/25 03:53:44;;;;;;;;;;;;;;;20.52;51.63;98697.37;4443725;32;34263;-84
2022/05/25 03:56:11;;;;;;;;;;;;;;;19.86;52.98;98704.00;4446346;32;34209;-90
2022/05/25 03:58:38;;;;;;;;;;;;;;;19.88;53.19;98710.91;4446119;32;34453;-84
2022/05/25 04:01:06;;;;;;;;;;;;;;;20.15;52.44;98709.16;4480659;32;34382;-86
2022/05/25 04:03:35;;;;;;;;;;;;;;;20.22;52.31;98725.59;4472974;32;33316;-92
2022/05/25 04:06:02;;;;;;;;;;;;;;;21.23;49.97;98711.50;4460810;32;34252;-83
2022/05/25 04:08:29;;;;;;;;;;;;;;;21.62;48.72;98711.75;4483669;32;35107;-85
2022/05/25 04:10:57;;;;;;;;;;;;;;;21.24;49.24;98713.22;4483578;32;34215;-84
2022/05/25 04:13:25;;;;;;;;;;;;;;;21.02;50.15;98712.28;4471975;32;33559;-84
2022/05/25 04:15:53;;;;;;;;;;;;;;;21.25;49.23;98714.94;4474856;32;34189;-82
2022/05/25 04:18:20;;;;;;;;;;;;;;;21.78;48.04;98719.94;4474094;31;34539;-85
2022/05/25 04:20:48;;;;;;;;;;;;;;;22.08;47.55;98714.31;4477174;32;34346;-84
2022/05/25 04:23:15;;;;;;;;;;;;;;;20.78;49.98;98729.84;4476725;32;33347;-91
2022/05/25 04:25:43;;;;;;;;;;;;;;;21.52;49.11;98728.03;4476555;32;35140;-83
2022/05/25 04:28:10;;;;;;;;;;;;;;;21.67;47.83;98740.62;4469198;32;33945;-85
2022/05/25 04:30:37;;;;;;;;;;;;;;;21.67;47.76;98742.38;4476272;32;34282;-84
2022/05/25 04:33:05;;;;;;;;;;;;;;;21.73;47.77;98743.00;4473705;32;32090;-84
2022/05/25 04:35:32;;;;;;;;;;;;;;;20.76;49.97;98743.09;4476212;32;34845;-83
2022/05/25 04:37:59;;;;;;;;;;;;;;;20.75;50.29;98727.31;4481427;32;34392;-83
2022/05/25 04:40:27;;;;;;;;;;;;;;;21.71;48.11;98715.84;4461877;32;34320;-83
2022/05/25 04:42:55;;;;;;;;;;;;;;;20.96;49.12;98720.44;4477583;32;34052;-83
2022/05/25 04:45:25;;;;;;;;;;;;;;;21.35;48.39;98726.88;4454932;32;32834;-85
2022/05/25 04:47:57;;;;;;;;;;;;;;;21.40;48.42;98713.50;4465644;32;34350;-89
2022/05/25 04:50:24;;;;;;;;;;;;;;;20.93;49.26;98724.03;4468245;32;34354;-87
2022/05/25 04:52:53;;;;;;;;;;;;;;;21.40;48.41;98725.84;4460567;32;33356;-84
2022/05/25 04:58:16;;;;;;;;;;;;;;;19.84;52.08;98745.25;4474015;32;34170;-87
2022/05/25 05:00:43;;;;;;;;;;;;;;;21.05;49.53;98733.25;4483412;32;34215;-84
2022/05/25 05:03:11;;;;;;;;;;;;;;;20.96;50.25;98739.75;4476134;32;34268;-88
2022/05/25 05:05:38;;;;;;;;;;;;;;;21.42;49.16;98734.56;4471664;32;35351;-86
2022/05/25 05:08:07;;;;;;;;;;;;;;;21.62;48.91;98742.56;4462345;32;34422;-89
2022/05/25 05:10:34;;;;;;;;;;;;;;;20.97;50.54;98743.22;4465060;32;34341;-82
2022/05/25 05:13:04;;;;;;;;;;;;;;;21.42;49.50;98753.03;4464953;32;33107;-83
2022/05/25 05:15:32;;;;;;;;;;;;;;;22.73;46.34;98758.28;4474131;32;34252;-83
2022/05/25 05:18:00;;;;;;;;;;;;;;;22.21;46.84;98754.34;4471181;32;33986;-87
2022/05/25 05:20:29;;;;;;;;;;;;;;;22.40;47.11;98750.00;4460692;32;34366;-83
2022/05/25 05:22:57;;;;;;;;;;;;;;;22.48;46.93;98744.41;4454227;32;34450;-83
2022/05/25 05:25:25;;;;;;;;;;;;;;;22.41;47.23;98751.72;4453758;32;34244;-83
2022/05/25 05:27:53;;;;;;;;;;;;;;;22.62;46.88;98760.53;4453472;32;35174;-87
2022/05/25 05:30:21;;;;;;;;;;;;;;;23.23;45.51;98757.84;4458415;32;34104;-89
2022/05/25 05:32:49;;;;;;;;;;;;;;;23.21;45.64;98759.69;4469192;32;33072;-83
2022/05/25 05:35:16;;;;;;;;;;;;;;;23.38;45.50;98771.31;4483223;32;34321;-82
2022/05/25 05:37:45;;;;;;;;;;;;;;;23.65;44.88;98770.03;4483610;32;34056;-83
2022/05/25 05:40:13;;;;;;;;;;;;;;;23.89;44.33;98775.13;4459536;32;34218;-88
2022/05/25 05:42:41;;;;;;;;;;;;;;;23.78;44.74;98770.34;4477240;32;33958;-82
2022/05/25 05:45:09;;;;;;;;;;;;;;;23.12;45.36;98776.00;4451499;32;33963;-83
2022/05/25 05:47:38;;;;;;;;;;;;;;;22.57;46.59;98783.63;4472165;32;35306;-82
2022/05/25 05:50:05;;;;;;;;;;;;;;;22.48;47.67;98784.03;4467800;32;34116;-83
2022/05/25 05:52:33;;;;;;;;;;;;;;;22.83;46.61;98786.00;4452735;32;33228;-83
2022/05/25 05:55:01;;;;;;;;;;;;;;;22.60;47.26;98794.06;4460808;32;34056;-92
2022/05/25 05:57:28;;;;;;;;;;;;;;;23.33;45.93;98790.03;4469582;32;34389;-93
2022/05/25 05:59:56;;;;;;;;;;;;;;;23.83;44.40;98799.22;4483513;32;34103;-81
2022/05/25 06:02:23;;;;;;;;;;;;;;;24.58;43.56;98804.41;4483406;32;33442;-91
2022/05/25 06:04:51;;;;;;;;;;;;;;;24.40;43.36;98794.75;4477086;32;34374;-82
2022/05/25 06:07:18;;;;;;;;;;;;;;;23.63;44.52;98795.69;4467765;32;34214;-82
2022/05/25 06:09:45;;;;;;;;;;;;;;;23.48;44.79;98788.47;4461544;32;34345;-90
2022/05/25 06:12:14;;;;;;;;;;;;;;;23.17;46.00;98797.78;4467814;32;34374;-83
2022/05/25 06:14:41;;;;;;;;;;;;;;;23.42;46.46;98796.69;4477573;32;33950;-80
2022/05/25 06:19:55;;;;;;;;;;;;;;;24.01;44.46;98793.06;4468389;32;34275;-91
2022/05/25 06:22:27;;;;;;;;;;;;;;;23.51;45.00;98793.62;4467555;32;33276;-80
2022/05/25 06:24:55;;;;;;;;;;;;;;;23.44;45.42;98797.47;4467577;32;34983;-82
2022/05/25 06:27:23;;;;;;;;;;;;;;;24.62;43.59;98795.38;4467685;32;35128;-87
2022/05/25 06:29:51;;;;;;;;;;;;;;;25.38;42.18;98800.31;4455281;32;33562;-82
2022/05/25 06:32:20;;;;;;;;;;;;;;;24.46;43.27;98799.72;4483115;32;33243;-89
2022/05/25 06:34:48;;;;;;;;;;;;;;;24.85;42.65;98802.19;4482740;32;34197;-82
2022/05/25 06:37:16;;;;;;;;;;;;;;;25.59;41.80;98793.00;4483192;32;34157;-86
2022/05/25 06:39:43;;;;;;;;;;;;;;;26.04;40.75;98789.63;4455680;32;34746;-83
2022/05/25 06:42:11;;;;;;;;;;;;;;;25.76;40.75;98784.97;4471795;32;34160;-82
2022/05/25 06:44:44;;;;;;;;;;;;;;;25.21;41.41;98794.13;4483079;32;34243;-82
2022/05/25 06:47:15;;;;;;;;;;;;;;;25.32;41.54;98784.75;4472610;32;34544;-83
2022/05/25 06:49:43;;;;;;;;;;;;;;;25.28;41.46;98785.84;4469739;32;33929;-81
2022/05/25 06:52:11;;;;;;;;;;;;;;;23.93;44.06;98792.56;4453471;32;33403;-81
2022/05/25 06:54:40;;;;;;;;;;;;;;;24.27;43.97;98799.75;4467241;32;33989;-82
2022/05/25 06:57:07;;;;;;;;;;;;;;;25.10;43.54;98796.47;4467131;32;34181;-81
2022/05/25 06:59:34;;;;;;;;;;;;;;;25.13;42.71;98806.94;4467029;32;34236;-82
2022/05/25 07:02:02;;;;;;;;;;;;;;;24.74;44.01;98807.19;4466991;32;33751;-82
2022/05/25 07:04:29;;;;;;;;;;;;;;;25.63;41.67;98807.81;4470708;32;35187;-81
2022/05/25 07:07:03;;;;;;;;;;;;;;;25.95;40.98;98806.09;4472261;32;35196;-82
2022/05/25 07:09:31;;;;;;;;;;;;;;;25.05;42.87;98819.72;4458179;32;34250;-82
2022/05/25 07:11:58;;;;;;;;;;;;;;;25.03;42.89;98821.56;4471962;32;33795;-82
2022/05/25 07:14:26;;;;;;;;;;;;;;;25.20;42.48;98816.28;4471815;32;34243;-81
2022/05/25 07:16:55;;;;;;;;;;;;;;;25.23;43.00;98797.56;4457915;32;34227;-82
2022/05/25 07:19:22;;;;;;;;;;;;;;;25.94;41.38;98788.41;4472103;32;34356;-89
2022/05/25 07:21:50;;;;;;;;;;;;;;;25.55;42.58;98800.28;4471980;32;33364;-82
2022/05/25 07:24:17;;;;;;;;;;;;;;;24.79;44.55;98804.28;4471818;32;33743;-82
2022/05/25 07:26:44;;;;;;;;;;;;;;;24.56;44.39;98816.06;4471922;32;33904;-82
2022/05/25 07:29:12;;;;;;;;;;;;;;;24.79;43.90;98815.75;4472049;32;34318;-82
2022/05/25 07:31:42;;;;;;;;;;;;;;;25.12;44.10;98815.84;4471861;32;34329;-84
2022/05/25 07:34:23;;;;;;;;;;;;;;;25.38;42.67;98809.16;4457941;32;34259;-82
2022/05/25 07:36:51;;;;;;;;;;;;;;;25.86;42.26;98806.59;4457812;32;34462;-83
2022/05/25 07:39:19;;;;;;;;;;;;;;;26.10;41.90;98812.31;4457745;32;34813;-82
2022/05/25 07:41:50;;;;;;;;;;;;;;;27.07;40.12;98805.75;4457676;32;33509;-84
2022/05/25 07:44:19;;;;;;;;;;;;;;;28.04;38.14;98805.97;4457486;32;34001;-83
2022/05/25 07:46:46;;;;;;;;;;;;;;;26.78;40.25;98807.50;4457635;32;34292;-83
2022/05/25 07:49:14;;;;;;;;;;;;;;;27.79;38.73;98804.03;4471883;32;34571;-83
2022/05/25 07:51:41;;;;;;;;;;;;;;;26.66;40.54;98814.41;4471822;32;34352;-83
2022/05/25 07:54:09;;;;;;;;;;;;;;;27.81;38.76;98810.13;4471909;32;34231;-83
2022/05/25 07:56:36;;;;;;;;;;;;;;;27.77;39.49;98802.41;4457470;32;34557;-83
2022/05/25 07:59:06;;;;;;;;;;;;;;;26.30;42.30;98806.75;4471082;32;35138;-83
2022/05/25 08:07:07;;;;;;;;;;;;;;;26.33;42.02;98818.97;4459446;32;34365;-82
2022/05/25 08:09:35;;;;;;;;;;;;;;;26.82;41.14;98818.81;4457340;32;34825;-83
2022/05/25 08:12:04;;;;;;;;;;;;;;;27.49;40.20;98825.41;4471433;32;32835;-82
2022/05/25 08:14:31;;;;;;;;;;;;;;;28.43;38.37;98817.69;4470496;32;35022;-86
2022/05/25 08:16:58;;;;;;;;;;;;;;;28.03;39.10;98808.72;4468248;32;34317;-83
2022/05/25 08:19:26;;;;;;;;;;;;;;;27.83;39.76;98808.19;4468581;32;34293;-82
2022/05/25 08:21:53;;;;;;;;;;;;;;;28.35;38.47;98815.50;4454594;32;33170;-83
2022/05/25 08:24:20;;;;;;;;;;;;;;;28.18;39.18;98812.22;4468411;32;33684;-83
2022/05/25 08:26:48;;;;;;;;;;;;;;;27.25;40.29;98817.13;4468540;32;35192;-83
2022/05/25 08:29:15;;;;;;;;;;;;;;;27.82;38.98;98805.66;4468434;32;33993;-82
2022/05/25 08:31:42;;;;;;;;;;;;;;;27.76;39.24;98811.34;4468156;32;34310;-82
2022/05/25 08:34:10;;;;;;;;;;;;;;;28.21;38.83;98804.03;4468267;32;34376;-83
2022/05/25 08:36:37;;;;;;;;;;;;;;;25.72;43.56;98816.16;4468309;32;35138;-81
2022/05/25 08:39:05;;;;;;;;;;;;;;;26.53;42.54;98807.25;4468192;32;35307;-88
2022/05/25 08:41:34;;;;;;;;;;;;;;;27.98;39.86;98801.03;4468368;32;33588;-82
2022/05/25 08:44:02;;;;;;;;;;;;;;;28.65;38.69;98810.94;4454074;32;34096;-83
2022/05/25 08:46:30;;;;;;;;;;;;;;;28.41;39.22;98803.59;4453990;32;35152;-82
2022/05/25 08:49:02;;;;;;;;;;;;;;;26.87;41.57;98811.44;4468170;32;33996;-82
2022/05/25 08:51:40;;;;;;;;;;;;;;;26.01;43.49;98813.69;4455075;32;34319;-82
2022/05/25 08:54:09;;;;;;;;;;;;;;;27.67;40.64;98817.25;4468195;32;33925;-82
2022/05/25 08:57:05;;;;;;;;;;;;;;;28.33;39.68;98811.22;4468080;32;34140;-82
2022/05/25 08:59:36;;;;;;;;;;;;;;;28.82;39.43;98806.16;4461150;32;34045;-82
2022/05/25 09:02:22;;;;;;;;;;;;;;;28.12;38.84;98803.66;4468250;32;33601;-82
2022/05/25 09:04:52;;;;;;;;;;;;;;;28.58;38.62;98811.34;4468112;32;33701;-82
2022/05/25 09:07:24;;;;;;;;;;;;;;;29.66;36.60;98799.47;4454405;32;35166;-83
2022/05/25 09:09:52;;;;;;;;;;;;;;;28.75;38.33;98812.00;4468305;32;35019;-83
2022/05/25 09:12:19;;;;;;;;;;;;;;;28.86;39.16;98806.78;4454188;32;33545;-82
2022/05/25 09:14:48;;;;;;;;;;;;;;;29.65;37.46;98797.78;4468093;32;34010;-82
2022/05/25 09:17:23;;;;;;;;;;;;;;;30.12;36.53;98803.31;4454205;32;34298;-92
2022/05/25 09:19:51;;;;;;;;;;;;;;;30.35;35.96;98799.84;4454355;32;34898;-81
2022/05/25 09:22:19;;;;;;;;;;;;;;;29.28;37.80;98812.84;4454052;32;33027;-82
2022/05/25 09:24:47;;;;;;;;;;;;;;;30.81;34.97;98811.63;4468319;32;35000;-82
2022/05/25 09:27:17;;;;;;;;;;;;;;;30.54;35.55;98805.53;4453686;32;34955;-82
2022/05/25 09:29:44;;;;;;;;;;;;;;;30.76;34.80;98807.47;4453749;32;34390;-82
2022/05/25 09:32:14;;;;;;;;;;;;;;;29.77;37.51;98809.41;4453740;32;33670;-93
2022/05/25 09:34:48;;;;;;;;;;;;;;;30.25;37.12;98807.69;4468181;32;34371;-82
2022/05/25 09:37:23;;;;;;;;;;;;;;;30.80;35.98;98805.41;4453686;32;34351;-82
2022/05/25 09:39:52;;;;;;;;;;;;;;;30.71;36.18;98806.91;4454325;32;34260;-82
2022/05/25 09:42:19;;;;;;;;;;;;;;;30.32;35.94;98808.09;4453514;32;33371;-85
2022/05/25 09:44:52;;;;;;;;;;;;;;;30.57;36.22;98807.09;4453671;32;34130;-82
2022/05/25 09:47:24;;;;;;;;;;;;;;;29.72;37.84;98808.88;4468116;32;34083;-82
2022/05/25 09:49:53;;;;;;;;;;;;;;;30.81;35.62;98808.94;4453847;32;34009;-82
2022/05/25 09:52:20;;;;;;;;;;;;;;;29.78;36.86;98817.31;4468210;32;33886;-82
2022/05/25 09:54:55;;;;;;;;;;;;;;;30.19;37.26;98812.63;4467663;32;34699;-85
2022/05/25 09:57:39;;;;;;;;;;;;;;;30.45;37.11;98814.22;4453906;32;33772;-93
2022/05/25 10:00:15;;;;;;;;;;;;;;;30.09;38.46;98817.78;4453538;32;33916;-86
2022/05/25 10:02:45;;;;;;;;;;;;;;;30.90;36.00;98818.94;4468098;32;33550;-82
2022/05/25 10:05:23;;;;;;;;;;;;;;;30.23;37.99;98811.44;4467832;32;33754;-82
2022/05/25 10:07:52;;;;;;;;;;;;;;;31.07;35.91;98810.47;4454386;32;35280;-83
2022/05/25 10:10:28;;;;;;;;;;;;;;;31.68;34.52;98805.66;4453412;32;33878;-82
2022/05/25 10:13:00;;;;;;;;;;;;;;;31.63;35.19;98812.34;4467651;32;33306;-83
2022/05/25 10:15:34;;;;;;;;;;;;;;;31.61;35.96;98817.00;4453464;32;33958;-86
2022/05/25 10:18:03;;;;;;;;;;;;;;;31.98;34.06;98807.72;4467408;32;35276;-83
2022/05/25 10:20:43;;;;;;;;;;;;;;;31.55;34.88;98806.75;4467602;32;34400;-82
2022/05/25 10:23:12;;;;;;;;;;;;;;;31.21;35.98;98804.00;4453527;32;33152;-82
2022/05/25 10:25:42;;;;;;;;;;;;;;;31.46;35.39;98790.44;4453656;32;34064;-84
2022/05/25 10:28:28;;;;;;;;;;;;;;;31.71;34.79;98796.53;4467561;32;34325;-82
2022/05/25 10:36:49;;;;;;;;;;;;;;;32.02;34.06;98802.13;4462000;32;34044;-82
2022/05/25 10:39:16;;;;;;;;;;;;;;;32.35;32.70;98798.47;4466467;32;34413;-82
2022/05/25 10:41:45;;;;;;;;;;;;;;;31.80;34.13;98797.63;4467533;32;34967;-92
2022/05/25 10:44:18;;;;;;;;;;;;;;;31.47;34.43;98800.16;4453709;32;33996;-84
2022/05/25 10:46:55;;;;;;;;;;;;;;;30.17;36.93;98799.38;4453585;32;35045;-84
2022/05/25 10:49:36;;;;;;;;;;;;;;;30.61;36.53;98803.25;4453346;32;34928;-92
2022/05/25 10:52:09;;;;;;;;;;;;;;;29.96;37.23;98812.44;4453484;32;34467;-82
2022/05/25 10:57:47;;;;;;;;;;;;;;;31.46;33.67;98797.63;4453226;32;34771;-82
2022/05/25 11:00:19;;;;;;;;;;;;;;;30.61;37.36;98808.59;4466986;32;33901;-83
2022/05/25 11:02:46;;;;;;;;;;;;;;;31.20;35.93;98810.34;4467411;32;33801;-82
2022/05/25 11:05:16;;;;;;;;;;;;;;;30.86;39.39;98802.25;4467378;32;34279;-82
2022/05/25 11:07:44;;;;;;;;;;;;;;;30.54;36.37;98808.19;4466797;32;33681;-82
2022/05/25 11:10:11;;;;;;;;;;;;;;;30.41;37.24;98804.72;4452986;32;34074;-87
2022/05/25 11:12:50;;;;;;;;;;;;;;;30.94;35.38;98815.88;4466858;32;33974;-84
2022/05/25 11:15:22;;;;;;;;;;;;;;;30.36;36.57;98817.59;4467152;32;33366;-83
2022/05/25 11:18:08;;;;;;;;;;;;;;;30.30;37.46;98816.19;4467120;32;34144;-82
2022/05/25 11:20:38;;;;;;;;;;;;;;;30.65;36.34;98823.44;4466843;32;34985;-84
2022/05/25 11:23:09;;;;;;;;;;;;;;;30.42;37.07;98821.63;4466938;32;33972;-84
2022/05/25 11:25:46;;;;;;;;;;;;;;;29.97;38.25;98824.88;4466786;32;33653;-83
2022/05/25 11:28:23;;;;;;;;;;;;;;;30.07;37.19;98819.69;4466780;32;34104;-83
2022/05/25 11:31:09;;;;;;;;;;;;;;;31.06;34.89;98815.91;4466760;32;35239;-83
2022/05/25 11:33:48;;;;;;;;;;;;;;;30.19;36.84;98817.97;4466732;32;33963;-83
2022/05/25 11:36:58;;;;;;;;;;;;;;;29.59;37.87;98819.59;4466613;32;32971;-83
2022/05/25 11:39:31;;;;;;;;;;;;;;;28.86;38.59;98825.47;4453005;32;34631;-83
2022/05/25 11:42:17;;;;;;;;;;;;;;;29.25;38.47;98826.44;4466810;32;34156;-83
2022/05/25 11:44:52;;;;;;;;;;;;;;;29.80;38.20;98817.19;4452772;32;34684;-84
2022/05/25 11:47:38;;;;;;;;;;;;;;;28.83;39.52;98812.37;4466467;32;34264;-84
2022/05/25 11:50:25;;;;;;;;;;;;;;;29.96;38.18;98809.78;4466775;32;34058;-83
2022/05/25 11:52:58;;;;;;;;;;;;;;;30.67;37.06;98813.47;4468400;32;34083;-84
2022/05/25 11:55:27;;;;;;;;;;;;;;;29.96;36.79;98820.47;4468828;32;34030;-83
2022/05/25 11:58:07;;;;;;;;;;;;;;;29.91;38.07;98822.63;4454572;32;33385;-83
2022/05/25 12:00:34;;;;;;;;;;;;;;;29.46;39.36;98824.91;4468645;32;34071;-83
2022/05/25 12:03:13;;;;;;;;;;;;;;;29.58;39.24;98823.22;4468651;32;34419;-82
2022/05/25 12:05:54;;;;;;;;;;;;;;;29.82;39.00;98820.63;4454378;32;35289;-82
2022/05/25 12:08:30;;;;;;;;;;;;;;;30.34;38.58;98821.34;4454934;32;34478;-83
2022/05/25 12:11:21;;;;;;;;;;;;;;;30.43;37.90;98818.00;4454514;32;34082;-83
2022/05/25 12:13:48;;;;;;;;;;;;;;;30.44;38.04;98827.72;4464413;32;34305;-83
2022/05/25 12:16:19;;;;;;;;;;;;;;;29.93;38.62;98831.41;4468784;32;34261;-83
2022/05/25 12:18:55;;;;;;;;;;;;;;;30.06;39.97;98832.22;4468739;32;34276;-82
2022/05/25 12:21:33;;;;;;;;;;;;;;;30.05;38.91;98833.19;4472858;32;33898;-82
2022/05/25 12:24:01;;;;;;;;;;;;;;;29.32;39.77;98843.69;4468725;32;35108;-83
2022/05/25 12:26:30;;;;;;;;;;;;;;;29.29;40.17;98836.78;4483505;32;34012;-85
2022/05/25 12:29:18;;;;;;;;;;;;;;;29.67;40.44;98837.75;4469255;32;34308;-83
2022/05/25 12:31:46;;;;;;;;;;;;;;;29.37;40.78;98833.56;4483428;32;34371;-84
2022/05/25 12:34:14;;;;;;;;;;;;;;;29.65;40.51;98837.00;4469749;32;35051;-83
2022/05/25 12:36:42;;;;;;;;;;;;;;;30.33;38.66;98830.34;4469800;32;34446;-84
2022/05/25 12:39:10;;;;;;;;;;;;;;;29.80;39.04;98839.44;4469488;32;34050;-82
2022/05/25 12:41:38;;;;;;;;;;;;;;;29.37;40.13;98849.59;4483885;32;34955;-84
2022/05/25 12:49:46;;;;;;;;;;;;;;;29.34;40.38;98839.12;4483546;32;33290;-84
2022/05/25 12:52:26;;;;;;;;;;;;;;;29.37;39.96;98836.25;4469829;32;35138;-83
2022/05/25 12:54:58;;;;;;;;;;;;;;;28.82;40.49;98834.66;4483634;32;34210;-83
2022/05/25 12:57:37;;;;;;;;;;;;;;;28.71;41.24;98837.19;4442013;32;870952;-84
2022/05/25 13:00:33;;;;;;;;;;;;;;;28.06;42.26;98832.53;4483847;32;34514;-84
2022/05/25 13:03:36;;;;;;;;;;;;;;;28.77;41.25;98834.97;4473313;32;34776;-85
2022/05/25 13:06:05;;;;;;;;;;;;;;;29.08;40.23;98831.09;4458572;32;35008;-83
2022/05/25 13:08:48;;;;;;;;;;;;;;;29.50;39.04;98810.38;4469559;32;34125;-84
2022/05/25 13:11:34;;;;;;;;;;;;;;;29.98;39.18;98821.22;4483964;32;34358;-85
2022/05/25 13:14:07;;;;;;;;;;;;;;;29.33;39.98;98824.91;4483861;31;33379;-84
2022/05/25 13:16:40;;;;;;;;;;;;;;;28.70;40.27;98814.13;4469725;32;35205;-84
2022/05/25 13:19:17;;;;;;;;;;;;;;;29.13;40.05;98819.25;4483119;31;34341;-84
2022/05/25 13:21:45;;;;;;;;;;;;;;;29.08;39.74;98815.06;4483975;32;34222;-85
2022/05/25 13:24:12;;;;;;;;;;;;;;;28.31;41.56;98824.66;4469179;32;34881;-84
2022/05/25 13:26:40;;;;;;;;;;;;;;;28.97;40.61;98822.94;4483394;31;35036;-84
2022/05/25 13:29:19;;;;;;;;;;;;;;;29.68;37.88;98823.44;4483369;32;33716;-83
2022/05/25 13:31:49;;;;;;;;;;;;;;;29.67;37.77;98827.06;4469173;32;33435;-84
2022/05/25 13:34:18;;;;;;;;;;;;;;;30.06;37.19;98818.00;4483512;32;34362;-83